createdAt,value
2023-03-05T00:01:07.275Z,58.84
2023-03-05T00:03:33.737Z,58.38
2023-03-05T00:06:00.173Z,58.90
2023-03-05T00:08:28.362Z,58.33
2023-03-05T00:10:58.549Z,58.33
2023-03-05T00:13:25.422Z,58.05
2023-03-05T00:15:51.893Z,57.93
2023-03-05T00:18:18.433Z,58.00
2023-03-05T00:20:44.770Z,58.02
2023-03-05T00:23:11.147Z,57.35
2023-03-05T00:25:37.803Z,57.87
2023-03-05T00:28:04.701Z,57.37
2023-03-05T00:30:31.958Z,57.95
2023-03-05T00:32:58.628Z,57.58
2023-03-05T00:35:25.068Z,57.36
2023-03-05T00:37:51.475Z,56.11
2023-03-05T00:40:18.494Z,56.87
2023-03-05T00:42:45.064Z,56.07
2023-03-05T00:45:12.219Z,56.77
2023-03-05T00:47:38.972Z,57.22
2023-03-05T00:50:07.297Z,57.64
2023-03-05T00:52:33.921Z,57.54
2023-03-05T00:55:00.273Z,58.26
2023-03-05T00:57:28.487Z,58.13
2023-03-05T00:59:54.884Z,58.83
2023-03-05T01:02:21.252Z,59.33
2023-03-05T01:04:47.781Z,59.32
2023-03-05T01:07:15.044Z,59.21
2023-03-05T01:09:41.391Z,59.47
2023-03-05T01:12:08.427Z,60.16
2023-03-05T01:14:36.016Z,60.89
2023-03-05T01:17:02.539Z,61.88
2023-03-05T01:19:28.891Z,61.91
2023-03-05T01:21:55.282Z,62.10
2023-03-05T01:24:22.363Z,62.35
2023-03-05T01:26:49.334Z,62.88
2023-03-05T01:29:15.691Z,62.19
2023-03-05T01:31:42.090Z,62.46
2023-03-05T01:34:08.464Z,63.10
2023-03-05T01:36:34.892Z,63.30
2023-03-05T01:39:02.347Z,63.96
2023-03-05T01:41:28.809Z,65.13
2023-03-05T01:43:55.181Z,64.73
2023-03-05T01:46:25.448Z,65.85
2023-03-05T01:48:54.143Z,67.12
2023-03-05T01:51:24.661Z,66.80
2023-03-05T01:53:51.254Z,66.87
2023-03-05T01:56:17.778Z,67.76
2023-03-05T01:58:45.784Z,67.33
2023-03-05T02:01:12.449Z,67.98
2023-03-05T02:03:39.291Z,67.06
2023-03-05T02:06:05.721Z,67.90
2023-03-05T02:08:32.164Z,68.65
2023-03-05T02:11:00.185Z,67.74
2023-03-05T02:13:32.085Z,68.92
2023-03-05T02:16:00.187Z,69.31
2023-03-05T02:18:27.443Z,68.81
2023-03-05T02:20:56.837Z,70.05
2023-03-05T02:23:26.430Z,70.36
2023-03-05T02:25:53.647Z,69.66
2023-03-05T02:28:30.770Z,70.96
2023-03-05T02:30:57.365Z,70.79
2023-03-05T02:33:23.974Z,70.04
2023-03-05T02:35:50.894Z,70.47
2023-03-05T02:38:19.675Z,71.13
2023-03-05T02:40:46.152Z,70.58
2023-03-05T02:43:14.053Z,70.68
2023-03-05T02:45:40.463Z,71.28
2023-03-05T02:48:07.000Z,70.63
2023-03-05T02:50:34.270Z,70.22
2023-03-05T02:53:00.671Z,70.03
2023-03-05T02:55:27.909Z,70.01
2023-03-05T02:57:54.335Z,70.11
2023-03-05T03:00:22.126Z,71.55
2023-03-05T03:02:48.572Z,72.00
2023-03-05T03:05:15.180Z,71.24
2023-03-05T03:07:41.827Z,72.05
2023-03-05T03:10:08.806Z,72.54
2023-03-05T03:12:43.444Z,72.24
2023-03-05T03:15:11.596Z,72.58
2023-03-05T03:17:39.248Z,72.44
2023-03-05T03:20:08.692Z,72.99
2023-03-05T03:22:35.170Z,72.24
2023-03-05T03:25:02.027Z,72.90
2023-03-05T03:27:28.392Z,72.40
2023-03-05T03:29:54.751Z,72.90
2023-03-05T03:32:21.150Z,71.78
2023-03-05T03:34:48.092Z,71.72
2023-03-05T03:37:15.145Z,71.75
2023-03-05T03:39:41.528Z,71.22
2023-03-05T03:42:08.057Z,71.40
2023-03-05T03:44:34.479Z,70.89
2023-03-05T03:47:01.581Z,71.50
2023-03-05T03:49:28.590Z,71.63
2023-03-05T03:51:55.438Z,70.96
2023-03-05T03:54:22.273Z,71.00
2023-03-05T03:56:48.738Z,70.52
2023-03-05T03:59:15.089Z,70.49
2023-03-05T04:01:41.560Z,70.26
2023-03-05T04:04:08.804Z,70.83
2023-03-05T04:06:35.263Z,71.15
2023-03-05T04:09:02.188Z,70.44
2023-03-05T04:11:28.580Z,70.48
2023-03-05T04:13:54.961Z,69.77
2023-03-05T04:16:22.018Z,69.66
2023-03-05T04:18:48.427Z,70.28
2023-03-05T04:21:15.053Z,70.16
2023-03-05T04:23:41.458Z,69.54
2023-03-05T04:26:07.804Z,69.55
2023-03-05T04:28:34.263Z,69.75
2023-03-05T04:31:00.674Z,69.28
2023-03-05T04:33:27.533Z,68.67
2023-03-05T04:35:53.924Z,69.23
2023-03-05T04:38:20.357Z,69.02
2023-03-05T04:40:46.843Z,68.89
2023-03-05T04:43:13.541Z,69.37
2023-03-05T04:45:43.690Z,69.13
2023-03-05T04:48:11.060Z,68.53
2023-03-05T04:50:38.049Z,68.78
2023-03-05T04:53:04.660Z,69.55
2023-03-05T04:55:31.071Z,70.29
2023-03-05T04:58:05.295Z,70.29
2023-03-05T05:00:31.743Z,70.70
2023-03-05T05:02:58.176Z,70.50
2023-03-05T05:05:27.309Z,69.40
2023-03-05T05:07:58.608Z,69.15
2023-03-05T05:10:26.513Z,70.04
2023-03-05T05:12:53.263Z,70.98
2023-03-05T05:15:19.863Z,70.26
2023-03-05T05:17:47.097Z,70.15
2023-03-05T05:20:15.204Z,69.92
2023-03-05T05:22:42.285Z,69.80
2023-03-05T05:25:10.847Z,69.70
2023-03-05T05:27:38.945Z,70.24
2023-03-05T05:30:06.815Z,69.64
2023-03-05T05:32:33.554Z,71.19
2023-03-05T05:35:01.069Z,71.23
2023-03-05T05:37:27.591Z,70.75
2023-03-05T05:39:54.119Z,70.92
2023-03-05T05:42:22.715Z,70.97
2023-03-05T05:44:49.971Z,70.99
2023-03-05T05:47:18.890Z,71.30
2023-03-05T05:49:45.277Z,71.13
2023-03-05T05:52:11.936Z,70.91
2023-03-05T05:54:38.459Z,70.90
2023-03-05T05:57:04.929Z,70.61
2023-03-05T05:59:31.292Z,70.40
2023-03-05T06:01:57.715Z,69.56
2023-03-05T06:04:24.068Z,70.18
2023-03-05T06:06:50.559Z,69.76
2023-03-05T06:09:17.325Z,70.64
2023-03-05T06:11:43.661Z,69.64
2023-03-05T06:14:12.335Z,69.97
2023-03-05T06:16:39.085Z,69.12
2023-03-05T06:19:05.694Z,70.20
2023-03-05T06:21:33.093Z,69.76
2023-03-05T06:24:00.123Z,69.05
2023-03-05T06:26:26.529Z,69.73
2023-03-05T06:28:53.848Z,68.85
2023-03-05T06:31:25.814Z,69.09
2023-03-05T06:33:54.489Z,68.88
2023-03-05T06:36:22.338Z,69.14
2023-03-05T06:38:49.346Z,69.30
2023-03-05T06:41:18.653Z,69.40
2023-03-05T06:43:46.733Z,69.55
2023-03-05T06:46:16.032Z,68.18
2023-03-05T06:48:43.267Z,67.97
2023-03-05T06:51:17.140Z,68.52
2023-03-05T06:53:44.658Z,69.36
2023-03-05T06:56:13.879Z,68.57
2023-03-05T06:58:40.928Z,69.05
2023-03-05T07:01:07.603Z,68.17
2023-03-05T07:03:35.676Z,67.99
2023-03-05T07:06:04.448Z,68.78
2023-03-05T07:08:31.188Z,68.62
2023-03-05T07:10:57.584Z,67.74
2023-03-05T07:13:23.970Z,68.43
2023-03-05T07:15:50.434Z,68.92
2023-03-05T07:18:16.980Z,68.06
2023-03-05T07:20:43.896Z,68.66
2023-03-05T07:23:10.288Z,68.26
2023-03-05T07:25:37.575Z,68.05
2023-03-05T07:28:12.232Z,68.63
2023-03-05T07:30:38.666Z,68.41
2023-03-05T07:33:05.035Z,68.35
2023-03-05T07:35:31.438Z,67.74
2023-03-05T07:37:57.787Z,67.61
2023-03-05T07:40:24.152Z,68.04
2023-03-05T07:42:50.522Z,68.30
2023-03-05T07:45:27.071Z,67.71
2023-03-05T07:47:53.424Z,68.39
2023-03-05T07:50:19.844Z,67.70
2023-03-05T07:52:46.237Z,67.72
2023-03-05T07:55:12.710Z,68.46
2023-03-05T07:57:39.150Z,68.52
2023-03-05T08:00:07.335Z,69.00
2023-03-05T08:02:38.164Z,68.25
2023-03-05T08:05:04.856Z,68.58
2023-03-05T08:07:31.192Z,67.84
2023-03-05T08:09:57.555Z,67.49
2023-03-05T08:12:23.981Z,66.25
2023-03-05T08:14:51.443Z,65.74
2023-03-05T08:17:18.301Z,66.29
2023-03-05T08:19:44.658Z,65.90
2023-03-05T08:22:11.076Z,65.67
2023-03-05T08:24:37.808Z,65.18
2023-03-05T08:27:04.194Z,65.28
2023-03-05T08:29:30.592Z,65.52
2023-03-05T08:31:56.922Z,66.39
2023-03-05T08:34:23.288Z,66.11
2023-03-05T08:36:50.090Z,66.04
2023-03-05T08:39:16.533Z,66.00
2023-03-05T08:41:42.937Z,66.01
2023-03-05T08:44:09.481Z,65.97
2023-03-05T08:46:36.854Z,66.35
2023-03-05T08:49:03.264Z,66.01
2023-03-05T08:51:29.629Z,65.20
2023-03-05T08:53:58.418Z,65.15
2023-03-05T08:56:26.208Z,65.05
2023-03-05T08:58:52.945Z,64.39
2023-03-05T09:01:19.576Z,63.58
2023-03-05T09:03:46.138Z,63.78
2023-03-05T09:06:12.595Z,62.58
2023-03-05T09:08:39.154Z,62.76
2023-03-05T09:11:07.467Z,62.38
2023-03-05T09:13:34.614Z,61.49
2023-03-05T09:16:03.967Z,62.32
2023-03-05T09:18:30.454Z,61.45
2023-03-05T09:20:57.034Z,61.25
2023-03-05T09:23:23.785Z,59.69
2023-03-05T09:25:50.534Z,60.36
2023-03-05T09:28:17.255Z,60.01
2023-03-05T09:30:43.601Z,60.03
2023-03-05T09:33:09.944Z,60.75
2023-03-05T09:35:36.992Z,60.70
2023-03-05T09:38:03.963Z,60.39
2023-03-05T09:40:55.530Z,58.94
2023-03-05T09:43:43.394Z,58.44
2023-03-05T09:46:25.843Z,59.24
2023-03-05T09:48:57.948Z,59.83
2023-03-05T09:51:27.838Z,60.29
2023-03-05T09:54:02.260Z,59.08
2023-03-05T09:56:46.965Z,60.34
2023-03-05T09:59:25.886Z,60.80
2023-03-05T10:02:01.984Z,60.74
2023-03-05T10:04:41.787Z,61.03
2023-03-05T10:07:15.092Z,60.68
2023-03-05T10:09:47.344Z,61.06
2023-03-05T10:12:27.639Z,61.97
2023-03-05T10:14:54.729Z,61.37
2023-03-05T10:17:39.786Z,61.02
2023-03-05T10:20:48.805Z,60.78
2023-03-05T10:23:47.933Z,61.61
2023-03-05T10:26:57.489Z,61.32
2023-03-05T10:29:56.336Z,61.56
2023-03-05T10:33:04.713Z,60.98
2023-03-05T10:35:46.236Z,61.40
2023-03-05T10:38:31.527Z,60.63
2023-03-05T10:41:06.551Z,55.81
2023-03-05T10:43:53.657Z,48.06
2023-03-05T10:46:23.780Z,44.11
2023-03-05T10:49:21.345Z,42.60
2023-03-05T10:52:11.076Z,41.91
2023-03-05T10:54:41.657Z,40.52
2023-03-05T10:57:30.540Z,40.00
2023-03-05T11:00:05.776Z,41.02
2023-03-05T11:02:35.006Z,41.23
2023-03-05T11:05:01.765Z,42.64
2023-03-05T11:07:31.909Z,42.20
2023-03-05T11:10:03.978Z,40.45
2023-03-05T11:12:35.172Z,40.21
2023-03-05T11:15:07.300Z,42.45
2023-03-05T11:17:37.770Z,44.64
2023-03-05T11:20:22.967Z,45.11
2023-03-05T11:23:05.866Z,46.10
2023-03-05T11:25:34.013Z,46.90
2023-03-05T11:28:02.616Z,48.48
2023-03-05T11:30:32.023Z,48.56
2023-03-05T11:33:15.732Z,49.09
2023-03-05T11:35:43.594Z,49.77
2023-03-05T11:38:25.470Z,50.03
2023-03-05T11:40:55.030Z,47.80
2023-03-05T11:43:24.249Z,46.42
2023-03-05T11:46:10.150Z,44.46
2023-03-05T11:48:38.699Z,41.02
2023-03-05T11:51:16.533Z,40.53
2023-03-05T11:53:46.998Z,40.51
2023-03-05T11:56:21.232Z,38.91
2023-03-05T11:58:58.754Z,40.71
2023-03-05T12:01:29.085Z,38.11
2023-03-05T12:03:55.967Z,36.08
2023-03-05T12:06:42.623Z,35.19
2023-03-05T12:09:42.360Z,34.50
2023-03-05T12:12:36.140Z,32.31
2023-03-05T12:15:17.466Z,32.43
2023-03-05T12:18:06.990Z,34.84
2023-03-05T12:20:58.899Z,36.08
2023-03-05T12:23:27.867Z,34.96
2023-03-05T12:26:01.070Z,35.90
2023-03-05T12:28:31.400Z,37.21
2023-03-05T12:31:00.863Z,37.59
2023-03-05T12:33:38.889Z,38.75
2023-03-05T12:36:17.435Z,39.72
2023-03-05T12:38:45.154Z,39.46
2023-03-05T12:41:23.361Z,40.17
2023-03-05T12:44:05.105Z,40.50
2023-03-05T12:46:42.703Z,38.88
2023-03-05T12:49:18.136Z,35.28
2023-03-05T12:51:47.615Z,32.37
2023-03-05T12:54:28.661Z,31.41
2023-03-05T12:57:01.605Z,32.67
2023-03-05T12:59:38.708Z,34.94
2023-03-05T13:02:34.625Z,35.87
2023-03-05T13:05:08.341Z,38.29
2023-03-05T13:07:35.296Z,39.19
2023-03-05T13:10:01.986Z,41.21
2023-03-05T13:12:30.317Z,41.16
2023-03-05T13:15:08.733Z,42.60
2023-03-05T13:17:44.242Z,42.63
2023-03-05T13:20:34.129Z,43.33
2023-03-05T13:23:09.709Z,43.65
2023-03-05T13:25:36.100Z,44.74
2023-03-05T13:28:04.664Z,44.81
2023-03-05T13:30:33.601Z,45.92
2023-03-05T13:33:03.403Z,45.48
2023-03-05T13:35:31.691Z,45.59
2023-03-05T13:37:58.309Z,45.94
2023-03-05T13:40:29.440Z,45.92
2023-03-05T13:43:09.144Z,46.15
2023-03-05T13:45:35.584Z,46.20
2023-03-05T13:48:04.785Z,45.84
2023-03-05T13:50:32.830Z,44.82
2023-03-05T13:53:20.965Z,44.82
2023-03-05T13:55:52.800Z,45.18
2023-03-05T13:58:52.341Z,44.59
2023-03-05T14:01:28.133Z,45.31
2023-03-05T14:04:19.489Z,45.71
2023-03-05T14:07:00.421Z,45.93
2023-03-05T14:09:28.698Z,46.23
2023-03-05T14:11:59.087Z,46.09
2023-03-05T14:14:27.270Z,46.02
2023-03-05T14:16:53.765Z,46.72
2023-03-05T14:19:38.079Z,46.34
2023-03-05T14:22:06.334Z,47.08
2023-03-05T14:24:33.919Z,46.87
2023-03-05T14:27:19.768Z,47.12
2023-03-05T14:29:46.635Z,47.86
2023-03-05T14:32:24.957Z,47.36
2023-03-05T14:34:57.048Z,48.28
2023-03-05T14:37:45.245Z,48.81
2023-03-05T14:40:12.091Z,49.02
2023-03-05T14:42:41.432Z,48.64
2023-03-05T14:45:17.777Z,48.12
2023-03-05T14:47:45.060Z,48.59
2023-03-05T14:50:15.984Z,47.93
2023-03-05T14:52:43.142Z,48.07
2023-03-05T14:55:22.695Z,48.29
2023-03-05T14:57:51.442Z,48.00
2023-03-05T15:00:23.390Z,47.94
2023-03-05T15:02:50.400Z,48.63
2023-03-05T15:05:17.767Z,48.55
2023-03-05T15:07:45.230Z,48.29
2023-03-05T15:10:20.777Z,48.75
2023-03-05T15:12:50.207Z,48.86
2023-03-05T15:15:17.894Z,49.11
2023-03-05T15:17:49.623Z,48.77
2023-03-05T15:20:27.835Z,48.77
2023-03-05T15:22:54.647Z,49.47
2023-03-05T15:25:23.133Z,49.36
2023-03-05T15:27:50.946Z,49.76
2023-03-05T15:30:23.362Z,50.28
2023-03-05T15:32:51.213Z,51.12
2023-03-05T15:35:18.047Z,51.75
2023-03-05T15:37:44.577Z,52.83
2023-03-05T15:40:12.044Z,53.48
2023-03-05T15:42:40.338Z,54.12
2023-03-05T15:45:08.742Z,54.37
2023-03-05T15:47:35.072Z,54.03
2023-03-05T15:50:02.205Z,53.74
2023-03-05T15:52:28.613Z,53.56
2023-03-05T15:54:55.165Z,53.64
2023-03-05T15:57:22.487Z,53.59
2023-03-05T15:59:48.820Z,53.25
2023-03-05T16:02:15.960Z,53.90
2023-03-05T16:04:42.330Z,53.82
2023-03-05T16:07:09.149Z,53.94
2023-03-05T16:09:39.106Z,54.50
2023-03-05T16:12:09.733Z,54.55
2023-03-05T16:14:38.688Z,54.82
2023-03-05T16:17:06.199Z,55.05
2023-03-05T16:19:36.654Z,55.36
2023-03-05T16:22:03.088Z,55.84
2023-03-05T16:24:29.449Z,55.98
2023-03-05T16:26:55.840Z,55.75
2023-03-05T16:29:22.212Z,56.50
2023-03-05T16:31:48.717Z,56.47
2023-03-05T16:34:16.163Z,56.64
2023-03-05T16:36:47.722Z,56.21
2023-03-05T16:39:14.916Z,55.89
2023-03-05T16:41:41.263Z,55.93
2023-03-05T16:44:07.729Z,56.98
2023-03-05T16:46:35.226Z,56.74
2023-03-05T16:49:02.083Z,57.01
2023-03-05T16:51:28.549Z,57.34
2023-03-05T16:53:55.831Z,57.35
2023-03-05T16:56:22.980Z,57.85
2023-03-05T16:58:52.190Z,57.76
2023-03-05T17:01:20.851Z,58.31
2023-03-05T17:03:47.945Z,59.01
2023-03-05T17:06:17.413Z,59.35
2023-03-05T17:08:45.386Z,59.02
2023-03-05T17:11:12.625Z,59.64
2023-03-05T17:13:40.270Z,59.87
2023-03-05T17:16:07.475Z,60.40
2023-03-05T17:18:33.891Z,60.70
2023-03-05T17:21:01.789Z,61.30
2023-03-05T17:23:28.274Z,61.97
2023-03-05T17:25:54.901Z,62.39
2023-03-05T17:28:21.501Z,62.41
2023-03-05T17:30:47.854Z,61.59
2023-03-05T17:33:14.240Z,62.09
2023-03-05T17:35:46.916Z,62.43
2023-03-05T17:38:14.240Z,62.69
2023-03-05T17:40:40.588Z,62.63
2023-03-05T17:43:06.934Z,62.70
2023-03-05T17:45:35.248Z,63.65
2023-03-05T17:48:01.914Z,63.83
2023-03-05T17:50:28.289Z,63.70
2023-03-05T17:52:55.165Z,63.95
2023-03-05T17:55:24.048Z,64.53
2023-03-05T17:57:50.874Z,64.96
2023-03-05T18:00:20.528Z,65.57
2023-03-05T18:02:46.955Z,65.45
2023-03-05T18:05:13.947Z,64.76
2023-03-05T18:07:40.271Z,65.56
2023-03-05T18:10:08.976Z,66.35
2023-03-05T18:12:36.029Z,66.23
2023-03-05T18:15:04.158Z,66.85
2023-03-05T18:17:30.628Z,66.40
2023-03-05T18:19:57.021Z,67.68
2023-03-05T18:22:23.362Z,68.21
2023-03-05T18:24:49.734Z,68.47
2023-03-05T18:27:16.220Z,67.91
2023-03-05T18:29:42.988Z,67.95
2023-03-05T18:32:13.465Z,69.00
2023-03-05T18:34:39.845Z,68.58
2023-03-05T18:37:06.285Z,69.72
2023-03-05T18:39:41.011Z,69.88
2023-03-05T18:42:12.364Z,69.76
2023-03-05T18:44:38.929Z,69.76
2023-03-05T18:47:05.309Z,69.35
2023-03-05T18:49:31.648Z,69.63
2023-03-05T18:51:58.498Z,68.99
2023-03-05T18:54:24.845Z,69.58
2023-03-05T18:56:51.198Z,70.32
2023-03-05T18:59:17.538Z,69.30
2023-03-05T19:01:44.354Z,70.05
2023-03-05T19:04:11.225Z,70.08
2023-03-05T19:06:38.353Z,71.25
2023-03-05T19:09:11.976Z,71.04
2023-03-05T19:11:38.347Z,70.30
2023-03-05T19:14:04.707Z,70.89
2023-03-05T19:16:41.668Z,70.61
2023-03-05T19:19:24.872Z,69.96
2023-03-05T19:21:53.929Z,70.49
2023-03-05T19:24:24.845Z,70.37
2023-03-05T19:26:55.153Z,70.61
2023-03-05T19:29:25.889Z,70.38
2023-03-05T19:31:53.374Z,71.19
2023-03-05T19:34:20.636Z,71.34
2023-03-05T19:36:47.781Z,72.17
2023-03-05T19:39:14.210Z,72.00
2023-03-05T19:41:40.576Z,70.89
2023-03-05T19:44:07.247Z,71.68
2023-03-05T19:46:33.917Z,71.95
2023-03-05T19:49:03.758Z,72.24
2023-03-05T19:51:36.471Z,71.51
2023-03-05T19:54:07.408Z,70.94
2023-03-05T19:56:39.468Z,71.69
2023-03-05T19:59:16.224Z,72.17
2023-03-05T20:01:42.746Z,72.16
2023-03-05T20:04:13.479Z,72.10
2023-03-05T20:06:43.518Z,71.94
2023-03-05T20:09:10.019Z,71.81
2023-03-05T20:11:37.249Z,72.06
2023-03-05T20:14:04.469Z,71.61
2023-03-05T20:16:32.778Z,72.44
2023-03-05T20:18:59.546Z,72.46
2023-03-05T20:21:38.992Z,72.80
2023-03-05T20:24:09.768Z,72.70
2023-03-05T20:26:38.049Z,72.94
2023-03-05T20:29:04.995Z,72.11
2023-03-05T20:31:36.785Z,73.32
2023-03-05T20:34:05.618Z,73.31
2023-03-05T20:36:32.218Z,73.27
2023-03-05T20:38:58.573Z,73.30
2023-03-05T20:41:24.940Z,72.81
2023-03-05T20:43:52.042Z,72.62
2023-03-05T20:46:21.615Z,72.15
2023-03-05T20:48:50.295Z,72.16
2023-03-05T20:51:24.241Z,73.18
2023-03-05T20:53:53.956Z,72.24
2023-03-05T20:56:20.529Z,72.33
2023-03-05T20:58:46.901Z,72.83
2023-03-05T21:01:13.334Z,72.63
2023-03-05T21:03:40.938Z,72.71
2023-03-05T21:06:07.718Z,72.80
2023-03-05T21:08:34.828Z,72.90
2023-03-05T21:11:08.745Z,73.61
2023-03-05T21:13:35.606Z,73.34
2023-03-05T21:16:09.685Z,72.89
2023-03-05T21:18:36.302Z,72.68
2023-03-05T21:21:03.104Z,73.45
2023-03-05T21:23:29.477Z,72.67
2023-03-05T21:25:59.911Z,72.91
2023-03-05T21:28:33.585Z,73.00
2023-03-05T21:31:06.830Z,72.66
2023-03-05T21:33:33.195Z,72.84
2023-03-05T21:35:59.822Z,72.91
2023-03-05T21:38:29.676Z,73.13
2023-03-05T21:40:58.387Z,72.29
2023-03-05T21:43:26.204Z,72.55
2023-03-05T21:45:54.558Z,74.04
2023-03-05T21:48:22.670Z,73.22
2023-03-05T21:50:51.077Z,73.82
2023-03-05T21:53:19.031Z,72.83
2023-03-05T21:56:10.745Z,73.42
2023-03-05T21:58:37.122Z,73.20
2023-03-05T22:01:03.701Z,73.18
2023-03-05T22:03:30.376Z,72.94
2023-03-05T22:05:57.317Z,72.92
2023-03-05T22:08:24.601Z,73.76
2023-03-05T22:10:51.363Z,73.84
2023-03-05T22:13:19.921Z,74.08
2023-03-05T22:15:49.479Z,73.54
2023-03-05T22:18:21.365Z,73.81
2023-03-05T22:20:48.318Z,74.09
2023-03-05T22:23:16.353Z,74.25
2023-03-05T22:25:43.231Z,73.27
2023-03-05T22:28:11.484Z,74.43
2023-03-05T22:30:43.788Z,73.83
2023-03-05T22:33:10.964Z,74.42
2023-03-05T22:35:39.574Z,74.01
2023-03-05T22:38:06.577Z,74.70
2023-03-05T22:40:32.949Z,73.90
2023-03-05T22:42:59.284Z,74.47
2023-03-05T22:45:25.613Z,74.76
2023-03-05T22:47:51.961Z,75.15
2023-03-05T22:50:18.514Z,73.96
2023-03-05T22:52:44.904Z,74.85
2023-03-05T22:55:13.130Z,75.08
2023-03-05T22:57:40.274Z,74.63
2023-03-05T23:00:13.235Z,74.09
2023-03-05T23:02:41.113Z,74.67
2023-03-05T23:05:07.762Z,74.38
2023-03-05T23:07:36.172Z,75.35
2023-03-05T23:10:09.999Z,75.69
2023-03-05T23:12:41.654Z,74.66
2023-03-05T23:15:11.690Z,74.97
2023-03-05T23:17:38.071Z,75.65
2023-03-05T23:20:08.166Z,75.89
2023-03-05T23:22:38.925Z,75.43
2023-03-05T23:25:05.861Z,74.56
2023-03-05T23:27:32.192Z,75.53
2023-03-05T23:30:21.222Z,74.71
2023-03-05T23:32:53.724Z,74.95
2023-03-05T23:35:29.117Z,74.63
2023-03-05T23:37:56.893Z,75.63
2023-03-05T23:40:26.952Z,75.35
2023-03-05T23:42:53.352Z,75.46
2023-03-05T23:45:21.665Z,75.07
2023-03-05T23:47:48.900Z,74.54
2023-03-05T23:50:19.027Z,74.94
2023-03-05T23:52:45.849Z,75.21
2023-03-05T23:55:20.165Z,75.55
2023-03-05T23:57:46.940Z,75.12
